Time;durP1;ratioP1;P1;durP2;ratioP2;P2;SDS_P1;SDS_P2;PMS_P1;PMS_P2;Temp;Humidity;BMP_temperature;BMP_pressure;BME280_temperature;BME280_humidity;BME280_pressure;Samples;Min_cycle;Max_cycle;Signal;HPM_P1;HPM_P2
2021/12/22 00:01:15;;;;;;;;;;;-0.80;1.00;;;;;;5078991;28;19913;-83
2021/12/22 00:03:45;;;;;;;;;;;-0.90;1.00;;;;;;5078721;28;19999;-84
2021/12/22 00:06:11;;;;;;;;;;;-0.90;1.00;;;;;;5087429;28;20400;-84
2021/12/22 00:08:36;;;;;;;;;;;-0.90;1.00;;;;;;5089860;28;19923;-83
2021/12/22 00:11:02;;;;;;;;;;;-0.90;1.00;;;;;;5078338;28;20338;-84
2021/12/22 00:13:29;;;;;;;;;;;-1.00;1.00;;;;;;5078332;28;19920;-84
2021/12/22 00:15:55;;;;;;;;;;;-1.00;1.00;;;;;;5077846;28;19966;-84
2021/12/22 00:18:21;;;;;;;;;;;-1.00;1.00;;;;;;5079168;28;19928;-84
2021/12/22 00:20:46;;;;;;;;;;;-1.00;1.00;;;;;;5065598;28;19920;-83
2021/12/22 00:23:11;;;;;;;;;;;-1.00;1.00;;;;;;5078551;28;19916;-84
2021/12/22 00:25:37;;;;;;;;;;;-1.00;1.00;;;;;;5057971;28;19919;-84
2021/12/22 00:28:03;;;;;;;;;;;-1.00;1.00;;;;;;5077916;28;19917;-84
2021/12/22 00:30:29;;;;;;;;;;;-1.00;1.00;;;;;;5093929;28;19923;-84
2021/12/22 00:33:01;;;;;;;;;;;-1.00;1.00;;;;;;5077251;28;19913;-84
2021/12/22 00:35:30;;;;;;;;;;;-1.00;1.00;;;;;;5051980;28;19916;-84
2021/12/22 00:37:55;;;;;;;;;;;-1.00;1.00;;;;;;5066842;28;19970;-84
2021/12/22 00:40:21;;;;;;;;;;;-1.00;1.00;;;;;;5079414;28;20318;-84
2021/12/22 00:42:46;;;;;;;;;;;-1.00;4.10;;;;;;5069285;28;19939;-83
2021/12/22 00:45:12;;;;;;;;;;;-1.00;28.60;;;;;;5076069;28;19920;-84
2021/12/22 00:47:37;;;;;;;;;;;-1.00;49.90;;;;;;5068919;28;19912;-84
2021/12/22 00:50:04;;;;;;;;;;;-1.10;96.10;;;;;;5101172;28;19913;-84
2021/12/22 00:52:29;;;;;;;;;;;-1.10;99.90;;;;;;5070503;28;19998;-84
2021/12/22 00:54:55;;;;;;;;;;;-1.10;99.90;;;;;;5081188;28;19960;-84
2021/12/22 00:57:21;;;;;;;;;;;-1.10;99.90;;;;;;5073696;28;20311;-84
2021/12/22 00:59:47;;;;;;;;;;;-1.10;99.90;;;;;;5079498;28;19917;-84
2021/12/22 01:02:13;;;;;;;;;;;-1.10;99.90;;;;;;5080067;28;19963;-84
2021/12/22 01:04:39;;;;;;;;;;;-1.20;99.90;;;;;;5069360;28;19909;-85
2021/12/22 01:07:05;;;;;;;;;;;-1.20;99.90;;;;;;5074066;28;19959;-85
2021/12/22 01:09:31;;;;;;;;;;;-1.20;99.90;;;;;;5081213;28;19909;-84
2021/12/22 01:11:56;;;;;;;;;;;-1.20;99.90;;;;;;5054043;28;19912;-84
2021/12/22 01:14:22;;;;;;;;;;;-1.30;99.90;;;;;;5081707;28;20304;-85
2021/12/22 01:16:50;;;;;;;;;;;-1.30;99.90;;;;;;5071483;28;19916;-84
2021/12/22 01:19:21;;;;;;;;;;;-1.20;99.90;;;;;;5082432;28;19958;-84
2021/12/22 01:21:52;;;;;;;;;;;-1.30;99.90;;;;;;5074264;28;20015;-85
2021/12/22 01:27:04;;;;;;;;;;;-1.30;99.90;;;;;;5074453;28;19919;-85
2021/12/22 01:29:33;;;;;;;;;;;-1.30;99.90;;;;;;5100433;28;19923;-84
2021/12/22 01:31:59;;;;;;;;;;;-1.30;99.90;;;;;;5061633;28;19913;-84
2021/12/22 01:34:25;;;;;;;;;;;-1.30;99.90;;;;;;5080798;28;20432;-84
2021/12/22 01:36:51;;;;;;;;;;;-1.30;99.90;;;;;;5073729;28;19970;-84
2021/12/22 01:39:16;;;;;;;;;;;-1.30;99.90;;;;;;5077116;28;19917;-84
2021/12/22 01:41:42;;;;;;;;;;;-1.30;99.90;;;;;;5093198;28;19964;-85
2021/12/22 01:44:09;;;;;;;;;;;-1.40;99.90;;;;;;5073258;28;19967;-84
2021/12/22 01:49:10;;;;;;;;;;;-1.40;99.90;;;;;;5080878;28;19916;-84
2021/12/22 01:51:54;;;;;;;;;;;-1.40;99.90;;;;;;5079295;28;19924;-83
2021/12/22 01:54:20;;;;;;;;;;;-1.40;99.90;;;;;;5068698;28;19917;-85
2021/12/22 01:56:46;;;;;;;;;;;-1.40;99.90;;;;;;5083549;28;20060;-85
2021/12/22 01:59:11;;;;;;;;;;;-1.30;99.90;;;;;;5079947;28;20403;-84
2021/12/22 02:01:38;;;;;;;;;;;-1.30;99.90;;;;;;5074666;28;19909;-84
2021/12/22 02:04:04;;;;;;;;;;;-1.40;99.90;;;;;;5083449;28;19912;-84
2021/12/22 02:06:30;;;;;;;;;;;-1.40;99.90;;;;;;5075794;28;19912;-84
2021/12/22 02:08:57;;;;;;;;;;;-1.40;99.90;;;;;;5056224;28;19972;-84
2021/12/22 02:11:23;;;;;;;;;;;-1.40;99.90;;;;;;5078283;28;19971;-84
2021/12/22 02:13:56;;;;;;;;;;;-1.50;99.90;;;;;;5075760;28;20007;-84
2021/12/22 02:16:27;;;;;;;;;;;-1.50;99.90;;;;;;5054039;28;19966;-84
2021/12/22 02:18:54;;;;;;;;;;;-1.50;99.90;;;;;;5077438;28;19975;-85
2021/12/22 02:21:20;;;;;;;;;;;-1.60;99.90;;;;;;5086098;28;19991;-84
2021/12/22 02:23:46;;;;;;;;;;;-1.60;99.90;;;;;;5091782;28;20002;-84
2021/12/22 02:27:04;;;;;;;;;;;-1.60;99.90;;;;;;5077344;28;20522;-84
2021/12/22 02:29:06;;;;;;;;;;;-1.60;99.90;;;;;;5072211;28;19912;-84
2021/12/22 02:31:38;;;;;;;;;;;-1.60;99.90;;;;;;5070944;28;19924;-84
2021/12/22 02:34:05;;;;;;;;;;;-1.60;99.90;;;;;;5075078;28;19966;-83
2021/12/22 02:36:37;;;;;;;;;;;-1.60;99.90;;;;;;5071542;28;20514;-84
2021/12/22 02:39:04;;;;;;;;;;;-1.60;99.90;;;;;;5091401;28;19913;-84
2021/12/22 02:41:31;;;;;;;;;;;-1.60;99.90;;;;;;5067443;28;19912;-84
2021/12/22 02:43:57;;;;;;;;;;;-1.60;99.90;;;;;;5060270;28;19950;-84
2021/12/22 02:46:25;;;;;;;;;;;-1.70;99.90;;;;;;5070698;28;20601;-84
2021/12/22 02:48:51;;;;;;;;;;;-1.60;99.90;;;;;;5071199;28;19990;-84
2021/12/22 02:51:17;;;;;;;;;;;-1.70;99.90;;;;;;5081426;28;19920;-84
2021/12/22 02:58:57;;;;;;;;;;;-1.60;99.90;;;;;;5069013;28;19956;-84
2021/12/22 03:04:03;;;;;;;;;;;-1.60;99.90;;;;;;5070366;28;20033;-85
2021/12/22 03:07:17;;;;;;;;;;;-1.60;99.90;;;;;;5079233;28;19957;-85
2021/12/22 03:09:16;;;;;;;;;;;-1.60;99.90;;;;;;5067285;28;19913;-84
2021/12/22 03:11:42;;;;;;;;;;;-1.70;99.90;;;;;;5097092;28;19952;-84
2021/12/22 03:14:07;;;;;;;;;;;-1.70;99.90;;;;;;5075876;28;19932;-84
2021/12/22 03:16:33;;;;;;;;;;;-1.70;99.90;;;;;;5079206;28;19924;-84
2021/12/22 03:18:58;;;;;;;;;;;-1.70;99.90;;;;;;5100400;28;20296;-84
2021/12/22 03:21:24;;;;;;;;;;;-1.70;99.90;;;;;;5079271;28;19912;-86
2021/12/22 03:23:51;;;;;;;;;;;-1.70;99.90;;;;;;5078970;28;19920;-84
2021/12/22 03:26:18;;;;;;;;;;;-1.70;99.90;;;;;;5080488;28;19974;-84
2021/12/22 03:28:44;;;;;;;;;;;-1.70;99.90;;;;;;5072323;28;20391;-84
2021/12/22 03:31:10;;;;;;;;;;;-1.70;99.90;;;;;;5077579;28;20041;-84
2021/12/22 03:33:36;;;;;;;;;;;-1.70;99.90;;;;;;5072405;28;19966;-84
2021/12/22 03:36:02;;;;;;;;;;;-1.70;99.90;;;;;;5076866;28;19983;-84
2021/12/22 03:38:29;;;;;;;;;;;-1.70;99.90;;;;;;5071077;28;19917;-84
2021/12/22 03:40:55;;;;;;;;;;;-1.70;99.90;;;;;;5074552;28;19919;-85
2021/12/22 03:43:21;;;;;;;;;;;-1.70;99.90;;;;;;5072215;28;19917;-84
2021/12/22 03:45:46;;;;;;;;;;;-1.70;99.90;;;;;;5074417;28;19913;-84
2021/12/22 03:48:12;;;;;;;;;;;-1.70;99.90;;;;;;5073619;28;19921;-84
2021/12/22 03:50:37;;;;;;;;;;;-1.70;99.90;;;;;;5068789;28;20343;-84
2021/12/22 03:53:03;;;;;;;;;;;-1.70;99.90;;;;;;5075089;28;19913;-84
2021/12/22 03:55:28;;;;;;;;;;;-1.80;99.90;;;;;;5069436;28;19927;-85
2021/12/22 03:57:54;;;;;;;;;;;-1.80;99.90;;;;;;5076178;28;19927;-85
2021/12/22 04:00:19;;;;;;;;;;;-1.80;99.90;;;;;;5070972;28;20117;-85
2021/12/22 04:02:45;;;;;;;;;;;-1.80;99.90;;;;;;5078924;28;20922;-85
2021/12/22 04:05:11;;;;;;;;;;;-1.80;99.90;;;;;;5080394;28;20364;-85
2021/12/22 04:07:36;;;;;;;;;;;-1.80;99.90;;;;;;5092495;28;19952;-84
2021/12/22 04:10:10;;;;;;;;;;;-1.80;99.90;;;;;;5074896;28;19936;-84
2021/12/22 04:12:35;;;;;;;;;;;-1.80;99.90;;;;;;5101069;28;19908;-84
2021/12/22 04:15:01;;;;;;;;;;;-1.80;99.90;;;;;;5073722;28;19913;-84
2021/12/22 04:17:26;;;;;;;;;;;-1.80;99.90;;;;;;5075629;28;19917;-86
2021/12/22 04:19:51;;;;;;;;;;;-1.90;99.90;;;;;;5097959;28;19920;-85
2021/12/22 04:22:17;;;;;;;;;;;-1.90;99.90;;;;;;5072798;28;19952;-85
2021/12/22 04:24:42;;;;;;;;;;;-1.90;99.90;;;;;;5076177;28;20389;-85
2021/12/22 04:27:08;;;;;;;;;;;-1.90;99.90;;;;;;5095268;28;19920;-85
2021/12/22 04:29:33;;;;;;;;;;;-1.90;99.90;;;;;;5095054;28;19923;-85
2021/12/22 04:31:59;;;;;;;;;;;-1.90;99.90;;;;;;5070249;28;19998;-84
2021/12/22 04:34:24;;;;;;;;;;;-1.90;99.90;;;;;;5081692;28;19920;-84
2021/12/22 04:36:50;;;;;;;;;;;-1.90;99.90;;;;;;5071784;28;19916;-86
2021/12/22 04:39:15;;;;;;;;;;;-1.90;99.90;;;;;;5079609;28;20020;-85
2021/12/22 04:41:41;;;;;;;;;;;-1.90;99.90;;;;;;5072785;28;20011;-84
2021/12/22 04:44:06;;;;;;;;;;;-1.90;99.90;;;;;;5075554;28;19912;-85
2021/12/22 04:46:32;;;;;;;;;;;-1.90;99.90;;;;;;5055386;28;19920;-84
2021/12/22 04:48:57;;;;;;;;;;;-1.90;99.90;;;;;;5075405;28;19912;-85
2021/12/22 04:51:27;;;;;;;;;;;-1.90;99.90;;;;;;5089934;28;19952;-85
2021/12/22 04:54:06;;;;;;;;;;;-1.90;99.90;;;;;;5076680;28;19912;-85
2021/12/22 04:56:32;;;;;;;;;;;-1.90;99.90;;;;;;5074470;28;19923;-85
2021/12/22 04:58:58;;;;;;;;;;;-1.90;99.90;;;;;;5077649;28;19952;-84
2021/12/22 05:01:23;;;;;;;;;;;-2.00;99.90;;;;;;5072971;28;19912;-84
2021/12/22 05:03:49;;;;;;;;;;;-2.00;99.90;;;;;;5077192;28;19934;-84
2021/12/22 05:06:14;;;;;;;;;;;-2.00;1.00;;;;;;5075041;28;20011;-84
2021/12/22 05:08:40;;;;;;;;;;;-2.00;1.00;;;;;;5094295;28;19920;-84
2021/12/22 05:11:05;;;;;;;;;;;-2.00;1.00;;;;;;5069231;28;19920;-85
2021/12/22 05:13:33;;;;;;;;;;;-2.00;1.00;;;;;;5067983;28;19916;-85
2021/12/22 05:15:59;;;;;;;;;;;-2.00;1.00;;;;;;5071340;28;19917;-85
2021/12/22 05:18:37;;;;;;;;;;;-2.00;1.00;;;;;;5066978;28;19916;-84
2021/12/22 05:21:03;;;;;;;;;;;-2.00;1.00;;;;;;5069768;28;19912;-84
2021/12/22 05:23:28;;;;;;;;;;;-2.00;1.00;;;;;;5070512;28;20348;-86
2021/12/22 05:25:53;;;;;;;;;;;-2.00;1.00;;;;;;5075683;28;19913;-86
2021/12/22 05:28:19;;;;;;;;;;;-1.90;1.00;;;;;;5076006;28;20449;-85
2021/12/22 05:30:47;;;;;;;;;;;-1.90;1.00;;;;;;5075604;28;19908;-85
2021/12/22 05:33:13;;;;;;;;;;;-1.90;99.90;;;;;;5074534;28;20066;-85
2021/12/22 05:35:38;;;;;;;;;;;-1.90;99.90;;;;;;5073339;28;19958;-85
2021/12/22 05:38:04;;;;;;;;;;;-1.90;99.90;;;;;;5058945;28;19944;-84
2021/12/22 05:40:30;;;;;;;;;;;-1.90;99.90;;;;;;5070194;28;19913;-83
2021/12/22 05:42:56;;;;;;;;;;;-1.90;99.90;;;;;;5074612;28;19931;-83
2021/12/22 05:45:22;;;;;;;;;;;-2.00;99.90;;;;;;5077285;28;19927;-83
2021/12/22 05:47:47;;;;;;;;;;;-2.00;99.90;;;;;;5080036;28;20376;-85
2021/12/22 05:50:13;;;;;;;;;;;-2.00;1.00;;;;;;5078944;28;19958;-83
2021/12/22 05:52:38;;;;;;;;;;;-2.00;1.00;;;;;;5071203;28;19921;-84
2021/12/22 05:55:04;;;;;;;;;;;-2.00;1.00;;;;;;5077918;28;20439;-85
2021/12/22 05:57:29;;;;;;;;;;;-2.00;99.90;;;;;;5077236;28;19913;-85
2021/12/22 05:59:55;;;;;;;;;;;-2.00;99.90;;;;;;5077883;28;19941;-84
2021/12/22 06:02:20;;;;;;;;;;;-1.90;99.90;;;;;;5083688;28;20375;-85
2021/12/22 06:04:46;;;;;;;;;;;-2.00;99.90;;;;;;5075085;28;21634;-85
2021/12/22 06:07:11;;;;;;;;;;;-2.00;99.90;;;;;;5082466;28;20388;-85
2021/12/22 06:09:37;;;;;;;;;;;-2.00;99.90;;;;;;5081006;28;19912;-86
2021/12/22 06:12:02;;;;;;;;;;;-2.00;99.90;;;;;;5074170;28;19912;-85
2021/12/22 06:14:28;;;;;;;;;;;-2.00;99.90;;;;;;5058997;28;19916;-85
2021/12/22 06:16:53;;;;;;;;;;;-2.00;99.90;;;;;;5079611;28;19938;-85
2021/12/22 06:19:20;;;;;;;;;;;-2.00;99.90;;;;;;5089184;28;19913;-84
2021/12/22 06:21:46;;;;;;;;;;;-2.10;1.00;;;;;;5082323;28;19912;-85
2021/12/22 06:24:12;;;;;;;;;;;-2.10;1.00;;;;;;5102655;28;19996;-85
2021/12/22 06:26:37;;;;;;;;;;;-2.10;1.00;;;;;;5077972;28;19956;-84
2021/12/22 06:29:03;;;;;;;;;;;-2.10;1.00;;;;;;5094997;28;19919;-85
2021/12/22 06:31:28;;;;;;;;;;;-2.10;1.00;;;;;;5095393;28;20300;-85
2021/12/22 06:33:54;;;;;;;;;;;-2.10;1.00;;;;;;5070407;28;19912;-87
2021/12/22 06:36:19;;;;;;;;;;;-2.10;1.00;;;;;;5075110;28;19919;-85
2021/12/22 06:38:45;;;;;;;;;;;-2.10;1.00;;;;;;5088743;28;19931;-86
2021/12/22 06:41:10;;;;;;;;;;;-2.10;1.00;;;;;;5079103;28;19974;-85
2021/12/22 06:43:36;;;;;;;;;;;-2.10;1.00;;;;;;5077919;28;20372;-85
2021/12/22 06:46:01;;;;;;;;;;;-2.10;1.00;;;;;;5090912;28;20380;-87
2021/12/22 06:48:27;;;;;;;;;;;-2.10;1.00;;;;;;5076939;28;20257;-86
2021/12/22 06:50:52;;;;;;;;;;;-2.10;1.00;;;;;;5068054;28;19992;-86
2021/12/22 06:53:18;;;;;;;;;;;-2.20;1.00;;;;;;5058966;28;19983;-85
2021/12/22 06:55:43;;;;;;;;;;;-2.10;1.00;;;;;;5102368;28;19999;-85
2021/12/22 06:58:08;;;;;;;;;;;-2.20;1.00;;;;;;5072818;28;20320;-85
2021/12/22 07:00:36;;;;;;;;;;;-2.20;1.00;;;;;;5074169;28;19920;-85
2021/12/22 07:03:04;;;;;;;;;;;-2.20;1.00;;;;;;5078591;28;19912;-85
2021/12/22 07:05:29;;;;;;;;;;;-2.20;1.00;;;;;;5093124;28;20003;-85
2021/12/22 07:07:55;;;;;;;;;;;-2.20;1.00;;;;;;5080090;28;19952;-86
2021/12/22 07:10:20;;;;;;;;;;;-2.10;1.00;;;;;;5098266;28;19913;-85
2021/12/22 07:12:46;;;;;;;;;;;-1.90;1.00;;;;;;5078739;28;19912;-85
2021/12/22 07:15:13;;;;;;;;;;;-1.80;1.00;;;;;;5050844;28;19951;-86
2021/12/22 07:17:40;;;;;;;;;;;-1.70;99.90;;;;;;5073849;28;19970;-88
2021/12/22 07:20:05;;;;;;;;;;;-1.60;99.90;;;;;;5080100;28;19917;-86
2021/12/22 07:22:32;;;;;;;;;;;-1.60;99.90;;;;;;5094778;28;19912;-85
2021/12/22 07:24:57;;;;;;;;;;;-1.60;99.90;;;;;;5084904;28;20564;-86
2021/12/22 07:27:22;;;;;;;;;;;-1.50;99.90;;;;;;5096541;28;19912;-86
2021/12/22 07:29:48;;;;;;;;;;;-1.50;71.70;;;;;;5072324;28;20276;-86
2021/12/22 07:32:13;;;;;;;;;;;-1.50;36.20;;;;;;5077699;28;19986;-86
2021/12/22 07:34:51;;;;;;;;;;;-1.50;17.90;;;;;;5078123;28;19947;-86
2021/12/22 07:37:23;;;;;;;;;;;-1.50;1.00;;;;;;5070988;28;20007;-86
2021/12/22 07:39:48;;;;;;;;;;;-1.50;1.00;;;;;;5077798;28;19913;-86
2021/12/22 07:42:14;;;;;;;;;;;-1.50;1.00;;;;;;5077620;28;19931;-86
2021/12/22 07:44:39;;;;;;;;;;;-1.50;1.00;;;;;;5077648;28;19909;-86
2021/12/22 07:47:05;;;;;;;;;;;-1.40;1.00;;;;;;5079702;28;19955;-86
2021/12/22 07:49:30;;;;;;;;;;;-1.40;1.00;;;;;;5077504;28;19963;-87
2021/12/22 07:51:55;;;;;;;;;;;-1.30;1.00;;;;;;5078926;28;19919;-86
2021/12/22 07:54:21;;;;;;;;;;;-1.30;1.00;;;;;;5076632;28;19913;-86
2021/12/22 07:56:46;;;;;;;;;;;-1.20;1.00;;;;;;5078350;28;19913;-85
2021/12/22 07:59:12;;;;;;;;;;;-1.20;99.90;;;;;;5088604;28;19920;-87
2021/12/22 08:01:37;;;;;;;;;;;-1.10;99.90;;;;;;5075785;28;19917;-86
2021/12/22 08:04:03;;;;;;;;;;;-1.00;99.90;;;;;;5075280;28;19912;-86
2021/12/22 08:06:28;;;;;;;;;;;-0.90;99.90;;;;;;5066675;28;19975;-86
2021/12/22 08:08:54;;;;;;;;;;;-0.80;1.00;;;;;;5062454;28;20426;-86
2021/12/22 08:11:19;;;;;;;;;;;-0.70;1.00;;;;;;5072791;28;19920;-87
2021/12/22 08:13:45;;;;;;;;;;;-0.60;99.90;;;;;;5073983;28;19951;-88
2021/12/22 08:16:10;;;;;;;;;;;-0.60;54.80;;;;;;5074029;28;19923;-87
2021/12/22 08:18:36;;;;;;;;;;;-0.50;1.00;;;;;;5074990;28;19912;-86
2021/12/22 08:23:46;;;;;;;;;;;-0.30;99.90;;;;;;5062425;28;19916;-87
2021/12/22 08:26:12;;;;;;;;;;;0.00;1.00;;;;;;5076291;28;19936;-87
2021/12/22 08:28:37;;;;;;;;;;;0.20;99.90;;;;;;5071466;28;19917;-88
2021/12/22 08:31:02;;;;;;;;;;;0.50;1.00;;;;;;5088900;28;19912;-87
2021/12/22 08:33:31;;;;;;;;;;;0.80;1.00;;;;;;5075713;28;19912;-87
2021/12/22 08:38:53;;;;;;;;;;;1.30;99.90;;;;;;5054482;28;19924;-86
2021/12/22 08:41:21;;;;;;;;;;;1.30;1.00;;;;;;5055977;28;19916;-87
2021/12/22 08:43:46;;;;;;;;;;;1.40;1.00;;;;;;5071984;28;19923;-87
2021/12/22 08:46:12;;;;;;;;;;;1.50;1.00;;;;;;5053468;28;19920;-86
2021/12/22 08:48:37;;;;;;;;;;;1.50;1.00;;;;;;5105169;28;19912;-87
2021/12/22 08:51:03;;;;;;;;;;;1.60;99.90;;;;;;5090859;28;19999;-88
2021/12/22 08:53:28;;;;;;;;;;;1.70;99.90;;;;;;5066547;28;20335;-86
2021/12/22 08:55:54;;;;;;;;;;;1.80;99.90;;;;;;5076002;28;20305;-86
2021/12/22 08:58:19;;;;;;;;;;;1.90;99.90;;;;;;5055245;28;20380;-88
2021/12/22 09:00:45;;;;;;;;;;;1.90;99.90;;;;;;5069467;28;19916;-87
2021/12/22 09:03:10;;;;;;;;;;;1.90;99.90;;;;;;5059991;28;19920;-87
2021/12/22 09:05:36;;;;;;;;;;;1.90;99.90;;;;;;5069050;28;19913;-87
2021/12/22 09:08:01;;;;;;;;;;;2.00;99.90;;;;;;5058116;28;19908;-86
2021/12/22 09:10:27;;;;;;;;;;;2.00;99.90;;;;;;5066828;28;19912;-88
2021/12/22 09:12:52;;;;;;;;;;;2.00;99.90;;;;;;5060560;28;19916;-87
2021/12/22 09:15:19;;;;;;;;;;;2.00;99.90;;;;;;5065041;28;19912;-87
2021/12/22 09:17:44;;;;;;;;;;;1.90;99.90;;;;;;5060197;28;19935;-86
2021/12/22 09:20:10;;;;;;;;;;;2.00;99.90;;;;;;5088977;28;19913;-88
2021/12/22 09:22:36;;;;;;;;;;;2.10;99.90;;;;;;5076710;28;19912;-87
2021/12/22 09:25:03;;;;;;;;;;;2.10;99.90;;;;;;5071160;28;20007;-87
2021/12/22 09:27:28;;;;;;;;;;;2.20;99.90;;;;;;5073562;28;19956;-87
2021/12/22 09:29:53;;;;;;;;;;;2.40;99.90;;;;;;5075050;28;20384;-86
2021/12/22 09:32:21;;;;;;;;;;;2.50;99.90;;;;;;5073669;28;19936;-86
2021/12/22 09:34:49;;;;;;;;;;;2.60;99.90;;;;;;5078849;28;19917;-84
2021/12/22 09:37:16;;;;;;;;;;;2.70;99.90;;;;;;5079984;28;19917;-86
2021/12/22 09:39:41;;;;;;;;;;;2.80;99.90;;;;;;5072093;28;20281;-84
2021/12/22 09:42:07;;;;;;;;;;;2.70;70.30;;;;;;5062009;28;19958;-85
2021/12/22 09:44:37;;;;;;;;;;;2.60;38.80;;;;;;5079542;28;19956;-85
2021/12/22 09:47:03;;;;;;;;;;;2.60;32.10;;;;;;5077752;28;19921;-84
2021/12/22 09:49:58;;;;;;;;;;;2.70;40.10;;;;;;5066139;28;19917;-85
2021/12/22 09:52:23;;;;;;;;;;;2.70;39.40;;;;;;5076964;28;20403;-85
2021/12/22 09:54:50;;;;;;;;;;;2.70;30.10;;;;;;5062423;28;19953;-86
2021/12/22 09:57:17;;;;;;;;;;;2.60;28.80;;;;;;5076690;28;19916;-85
2021/12/22 09:59:47;;;;;;;;;;;2.50;31.00;;;;;;5079398;28;19917;-84
2021/12/22 10:02:13;;;;;;;;;;;2.70;40.20;;;;;;5083071;28;19924;-86
2021/12/22 10:04:38;;;;;;;;;;;2.70;36.20;;;;;;5098122;28;20351;-86
2021/12/22 10:07:04;;;;;;;;;;;2.50;29.50;;;;;;5079001;28;19921;-85
2021/12/22 10:09:31;;;;;;;;;;;2.50;29.10;;;;;;5080284;28;19968;-85
2021/12/22 10:11:57;;;;;;;;;;;2.50;32.80;;;;;;5078619;28;20382;-85
2021/12/22 10:14:24;;;;;;;;;;;2.70;30.20;;;;;;5079355;28;19909;-85
2021/12/22 10:16:51;;;;;;;;;;;2.70;21.30;;;;;;5078911;28;19920;-85
2021/12/22 10:19:17;;;;;;;;;;;2.70;12.60;;;;;;5085392;28;19916;-86
2021/12/22 10:21:57;;;;;;;;;;;2.80;6.50;;;;;;5085781;28;19965;-85
2021/12/22 10:24:52;;;;;;;;;;;2.90;5.60;;;;;;5087659;28;19934;-85
2021/12/22 10:27:21;;;;;;;;;;;3.00;1.00;;;;;;5060836;28;19992;-86
2021/12/22 10:29:46;;;;;;;;;;;3.20;1.00;;;;;;5086490;28;19943;-86
2021/12/22 10:32:13;;;;;;;;;;;3.40;1.00;;;;;;5081437;28;21197;-85
2021/12/22 10:34:59;;;;;;;;;;;3.70;1.00;;;;;;5086387;28;19980;-86
2021/12/22 10:37:32;;;;;;;;;;;3.70;1.00;;;;;;5084899;28;19938;-86
2021/12/22 10:39:58;;;;;;;;;;;3.80;1.00;;;;;;5101538;28;19934;-85
2021/12/22 10:42:38;;;;;;;;;;;3.70;1.00;;;;;;5067280;28;19912;-86
2021/12/22 10:45:10;;;;;;;;;;;3.70;1.00;;;;;;5072424;28;19947;-86
2021/12/22 10:49:14;;;;;;;;;;;3.80;1.00;;;;;;5084290;28;19917;-85
2021/12/22 10:50:30;;;;;;;;;;;3.80;1.00;;;;;;5079033;28;19916;-85
2021/12/22 10:52:57;;;;;;;;;;;3.80;1.00;;;;;;5085677;28;20374;-86
2021/12/22 10:55:22;;;;;;;;;;;4.00;1.00;;;;;;5089732;28;20330;-85
2021/12/22 10:57:48;;;;;;;;;;;4.10;1.00;;;;;;5105636;28;19916;-86
2021/12/22 11:00:18;;;;;;;;;;;4.20;1.00;;;;;;5095467;28;19913;-85
2021/12/22 11:02:50;;;;;;;;;;;4.30;1.00;;;;;;5080965;28;19966;-84
2021/12/22 11:05:23;;;;;;;;;;;4.40;1.00;;;;;;5075580;28;19927;-86
2021/12/22 11:07:48;;;;;;;;;;;4.30;1.00;;;;;;5078884;28;20420;-85
2021/12/22 11:10:24;;;;;;;;;;;4.50;1.00;;;;;;5074840;28;19912;-85
2021/12/22 11:12:59;;;;;;;;;;;4.50;1.00;;;;;;5090692;28;19912;-85
2021/12/22 11:15:25;;;;;;;;;;;4.60;1.00;;;;;;5078627;28;20355;-85
2021/12/22 11:17:50;;;;;;;;;;;4.70;1.00;;;;;;5080404;28;19943;-85
2021/12/22 11:20:16;;;;;;;;;;;4.80;1.00;;;;;;5080485;28;20416;-86
2021/12/22 11:23:18;;;;;;;;;;;4.80;1.00;;;;;;5074495;28;20368;-85
2021/12/22 11:25:39;;;;;;;;;;;4.70;1.00;;;;;;5068158;28;20001;-84
2021/12/22 11:28:04;;;;;;;;;;;4.70;1.00;;;;;;5080256;28;19916;-84
2021/12/22 11:30:30;;;;;;;;;;;5.00;1.00;;;;;;5077845;28;19917;-84
2021/12/22 11:32:56;;;;;;;;;;;5.60;1.00;;;;;;5076505;28;20291;-86
2021/12/22 11:35:22;;;;;;;;;;;6.20;1.00;;;;;;5071923;28;19959;-85
2021/12/22 11:37:48;;;;;;;;;;;6.90;1.00;;;;;;5060220;28;19923;-85
2021/12/22 11:40:17;;;;;;;;;;;7.50;1.00;;;;;;5066488;28;19912;-86
2021/12/22 11:42:42;;;;;;;;;;;8.20;1.00;;;;;;5068396;28;19960;-86
2021/12/22 11:45:12;;;;;;;;;;;8.40;1.00;;;;;;5069300;28;20368;-85
2021/12/22 11:47:39;;;;;;;;;;;8.60;1.00;;;;;;5081194;28;19961;-85
2021/12/22 11:50:06;;;;;;;;;;;8.40;1.00;;;;;;5087263;28;20441;-86
2021/12/22 11:52:33;;;;;;;;;;;8.30;1.00;;;;;;5075108;28;19998;-85
2021/12/22 11:55:18;;;;;;;;;;;8.70;1.00;;;;;;5074437;28;19913;-87
2021/12/22 11:57:46;;;;;;;;;;;9.10;1.00;;;;;;5089073;28;19924;-86
2021/12/22 12:00:31;;;;;;;;;;;9.60;1.00;;;;;;5074210;28;19939;-86
2021/12/22 12:02:58;;;;;;;;;;;9.10;1.00;;;;;;5073091;28;19912;-86
2021/12/22 12:05:30;;;;;;;;;;;9.40;1.00;;;;;;5075812;28;19913;-86
2021/12/22 12:07:57;;;;;;;;;;;9.50;1.00;;;;;;5057873;28;20388;-86
2021/12/22 12:10:35;;;;;;;;;;;10.20;1.00;;;;;;5059972;28;19916;-86
2021/12/22 12:13:27;;;;;;;;;;;10.50;1.00;;;;;;5089097;28;19951;-87
2021/12/22 12:21:37;;;;;;;;;;;11.20;1.00;;;;;;5062811;28;19913;-87
2021/12/22 12:21:49;;;;;;;;;;;11.40;99.90;;;;;;5072731;28;19927;-87
2021/12/22 12:24:40;;;;;;;;;;;11.60;99.90;;;;;;5070190;28;19966;-86
2021/12/22 12:27:24;;;;;;;;;;;11.30;99.90;;;;;;5068087;28;19919;-86
2021/12/22 12:29:55;;;;;;;;;;;10.90;99.90;;;;;;5054297;28;20360;-87
2021/12/22 12:32:38;;;;;;;;;;;10.70;99.90;;;;;;5072606;28;20300;-87
2021/12/22 12:38:03;;;;;;;;;;;10.70;99.90;;;;;;5063350;28;19917;-87
2021/12/22 12:40:47;;;;;;;;;;;10.70;99.90;;;;;;5077363;28;20368;-87
2021/12/22 12:43:13;;;;;;;;;;;10.50;99.90;;;;;;5063637;28;19921;-86
2021/12/22 12:45:45;;;;;;;;;;;10.60;99.90;;;;;;5073527;28;19919;-86
2021/12/22 12:48:24;;;;;;;;;;;10.80;99.90;;;;;;5053758;28;19919;-86
2021/12/22 12:51:08;;;;;;;;;;;10.90;99.90;;;;;;5076089;28;19912;-86
2021/12/22 12:53:39;;;;;;;;;;;10.50;99.90;;;;;;5066380;28;20007;-86
2021/12/22 12:56:07;;;;;;;;;;;10.20;99.90;;;;;;5061398;28;19913;-86
2021/12/22 12:58:32;;;;;;;;;;;9.90;99.90;;;;;;5091970;28;19924;-86
2021/12/22 13:00:58;;;;;;;;;;;9.50;99.90;;;;;;5072431;28;19912;-86
2021/12/22 13:03:23;;;;;;;;;;;9.00;99.90;;;;;;5070824;28;19913;-86
2021/12/22 13:05:49;;;;;;;;;;;8.60;99.90;;;;;;5074535;28;20329;-86
2021/12/22 13:08:14;;;;;;;;;;;8.20;99.90;;;;;;5065897;28;19931;-86
2021/12/22 13:10:44;;;;;;;;;;;8.10;99.90;;;;;;5090419;28;19912;-85
2021/12/22 13:13:17;;;;;;;;;;;7.70;99.90;;;;;;5073047;28;19920;-86
2021/12/22 13:15:46;;;;;;;;;;;7.60;99.90;;;;;;5068446;28;19972;-85
2021/12/22 13:18:22;;;;;;;;;;;7.80;99.90;;;;;;5076815;28;19916;-86
2021/12/22 13:20:49;;;;;;;;;;;7.70;99.90;;;;;;5070376;28;20003;-86
2021/12/22 13:23:16;;;;;;;;;;;7.50;99.90;;;;;;5076906;28;19909;-86
2021/12/22 13:25:43;;;;;;;;;;;7.20;99.90;;;;;;5080414;28;19942;-86
2021/12/22 13:28:10;;;;;;;;;;;7.10;99.90;;;;;;5059237;28;19958;-86
2021/12/22 13:30:56;;;;;;;;;;;7.10;99.90;;;;;;5071557;28;20022;-86
2021/12/22 13:33:26;;;;;;;;;;;6.80;99.90;;;;;;5078482;28;20360;-86
2021/12/22 13:35:52;;;;;;;;;;;6.60;99.90;;;;;;5070514;28;19916;-86
2021/12/22 13:38:21;;;;;;;;;;;6.50;99.90;;;;;;5071839;28;19916;-86
2021/12/22 13:40:51;;;;;;;;;;;6.60;99.90;;;;;;5064721;28;19916;-86
2021/12/22 13:43:17;;;;;;;;;;;6.60;99.90;;;;;;5075427;28;20348;-86
2021/12/22 13:45:43;;;;;;;;;;;6.40;99.90;;;;;;5079041;28;20014;-86
2021/12/22 13:48:15;;;;;;;;;;;6.20;99.90;;;;;;5074454;28;19940;-86
2021/12/22 13:50:41;;;;;;;;;;;6.30;99.90;;;;;;5077602;28;21721;-85
2021/12/22 13:53:07;;;;;;;;;;;6.30;99.90;;;;;;5080264;28;20003;-85
2021/12/22 13:55:32;;;;;;;;;;;6.40;99.90;;;;;;5078866;28;19959;-86
2021/12/22 13:57:58;;;;;;;;;;;6.10;99.90;;;;;;5078972;28;19975;-85
2021/12/22 14:00:23;;;;;;;;;;;5.80;99.90;;;;;;5067348;28;19913;-85
2021/12/22 14:02:49;;;;;;;;;;;5.60;99.90;;;;;;5062724;28;19912;-87
2021/12/22 14:05:18;;;;;;;;;;;5.30;99.90;;;;;;5079937;28;19992;-86
2021/12/22 14:07:44;;;;;;;;;;;5.10;99.90;;;;;;5072101;28;19959;-85
2021/12/22 14:10:11;;;;;;;;;;;4.90;99.90;;;;;;5076259;28;19912;-86
2021/12/22 14:12:38;;;;;;;;;;;4.80;99.90;;;;;;5079351;28;19991;-86
2021/12/22 14:15:03;;;;;;;;;;;4.70;99.90;;;;;;5074338;28;19912;-85
2021/12/22 14:17:38;;;;;;;;;;;4.60;99.90;;;;;;5074643;28;19931;-86
2021/12/22 14:20:12;;;;;;;;;;;4.50;99.90;;;;;;5065339;28;19913;-85
2021/12/22 14:22:39;;;;;;;;;;;4.70;99.90;;;;;;5091853;28;19919;-86
2021/12/22 14:25:07;;;;;;;;;;;4.90;99.90;;;;;;5070481;28;19920;-87
2021/12/22 14:27:39;;;;;;;;;;;4.80;99.90;;;;;;5075329;28;20324;-85
2021/12/22 14:30:20;;;;;;;;;;;4.80;99.90;;;;;;5078050;28;20020;-85
2021/12/22 14:32:52;;;;;;;;;;;4.70;99.90;;;;;;5072548;28;20003;-86
2021/12/22 14:35:19;;;;;;;;;;;4.60;99.90;;;;;;5060953;28;19912;-85
2021/12/22 14:37:44;;;;;;;;;;;4.40;99.90;;;;;;5077416;28;19943;-85
2021/12/22 14:40:14;;;;;;;;;;;4.40;99.90;;;;;;5077859;28;19916;-86
2021/12/22 14:42:40;;;;;;;;;;;4.30;99.90;;;;;;5060140;28;19979;-85
2021/12/22 14:45:15;;;;;;;;;;;4.30;99.90;;;;;;5073632;28;19936;-84
2021/12/22 14:47:41;;;;;;;;;;;4.30;99.90;;;;;;5072113;28;19916;-85
2021/12/22 14:50:13;;;;;;;;;;;4.30;99.90;;;;;;5078605;28;19912;-85
2021/12/22 14:52:58;;;;;;;;;;;4.30;99.90;;;;;;5073852;28;19938;-85
2021/12/22 14:55:56;;;;;;;;;;;4.20;1.00;;;;;;5082644;28;19966;-85